Time;durP1;ratioP1;P1;durP2;ratioP2;P2;SDS_P1;SDS_P2;PMS_P1;PMS_P2;Temp;Humidity;BMP_temperature;BMP_pressure;BME280_temperature;BME280_humidity;BME280_pressure;Samples;Min_cycle;Max_cycle;Signal;HPM_P1;HPM_P2
2022/03/26 00:00:06;;;;;;;48.70;24.65;;;11.30;60.50;;;;;;5032376;28;20086;-90
2022/03/26 00:02:32;;;;;;;45.78;24.25;;;11.40;60.80;;;;;;5048616;28;20032;-89
2022/03/26 00:04:58;;;;;;;42.50;23.58;;;11.30;60.80;;;;;;5051140;28;20151;-84
2022/03/26 00:07:23;;;;;;;46.35;23.98;;;11.30;61.70;;;;;;5037514;28;20076;-87
2022/03/26 00:09:49;;;;;;;42.63;24.52;;;11.20;61.70;;;;;;5030982;28;20421;-83
2022/03/26 00:12:14;;;;;;;52.90;24.55;;;11.20;62.10;;;;;;5030985;28;20021;-83
2022/03/26 00:14:40;;;;;;;42.72;23.58;;;11.10;62.30;;;;;;5031212;28;20029;-84
2022/03/26 00:17:06;;;;;;;46.90;23.55;;;11.10;62.50;;;;;;5013657;28;20397;-90
2022/03/26 00:19:32;;;;;;;47.15;23.17;;;11.00;62.90;;;;;;5049923;28;20124;-83
2022/03/26 00:21:58;;;;;;;45.60;22.70;;;11.00;62.90;;;;;;5032139;28;20040;-84
2022/03/26 00:24:23;;;;;;;43.92;22.75;;;11.00;63.30;;;;;;5047198;28;20040;-84
2022/03/26 00:26:49;;;;;;;45.92;23.65;;;11.00;64.40;;;;;;5012742;28;20036;-84
2022/03/26 00:29:15;;;;;;;46.33;23.67;;;11.00;63.40;;;;;;5026471;28;20148;-83
2022/03/26 00:31:41;;;;;;;47.00;22.25;;;10.80;64.50;;;;;;5032601;28;20017;-87
2022/03/26 00:34:08;;;;;;;42.17;23.52;;;10.80;64.20;;;;;;5049871;28;20109;-87
2022/03/26 00:36:34;;;;;;;38.60;21.92;;;10.90;64.10;;;;;;5026114;28;20025;-86
2022/03/26 00:39:00;;;;;;;41.35;21.85;;;10.90;63.70;;;;;;5030229;28;20032;-83
2022/03/26 00:41:28;;;;;;;38.47;22.10;;;10.90;64.10;;;;;;5029203;28;20033;-87
2022/03/26 00:43:54;;;;;;;40.38;22.40;;;10.80;64.10;;;;;;5031057;28;20029;-85
2022/03/26 00:46:21;;;;;;;42.83;23.08;;;10.80;64.40;;;;;;5029905;28;20516;-84
2022/03/26 00:48:47;;;;;;;44.20;22.98;;;10.80;65.10;;;;;;5030108;28;20029;-84
2022/03/26 00:51:15;;;;;;;44.63;22.52;;;10.70;65.20;;;;;;5032551;28;20025;-84
2022/03/26 00:53:42;;;;;;;43.95;22.42;;;10.60;65.30;;;;;;5050672;28;20025;-84
2022/03/26 00:56:08;;;;;;;42.05;22.58;;;10.60;65.60;;;;;;5050691;28;20078;-84
2022/03/26 00:58:34;;;;;;;43.25;22.75;;;10.70;65.30;;;;;;5049695;28;20108;-83
2022/03/26 01:00:59;;;;;;;44.97;23.25;;;10.70;65.90;;;;;;5030712;28;20396;-84
2022/03/26 01:03:25;;;;;;;44.33;23.00;;;10.50;66.70;;;;;;5046933;28;20025;-84
2022/03/26 01:05:51;;;;;;;52.90;22.80;;;10.50;66.60;;;;;;5012040;28;20022;-88
2022/03/26 01:08:17;;;;;;;46.80;22.17;;;10.30;67.60;;;;;;5031243;28;20021;-83
2022/03/26 01:10:44;;;;;;;41.08;22.00;;;10.40;67.80;;;;;;5050562;28;20033;-85
2022/03/26 01:13:14;;;;;;;39.50;21.92;;;10.30;68.00;;;;;;5048806;28;20503;-84
2022/03/26 01:15:39;;;;;;;42.55;21.67;;;10.30;68.70;;;;;;5048990;28;20028;-83
2022/03/26 01:18:06;;;;;;;39.67;21.25;;;10.20;68.60;;;;;;5031038;28;20494;-85
2022/03/26 01:20:32;;;;;;;41.85;21.40;;;10.20;68.80;;;;;;5049503;28;20037;-89
2022/03/26 01:22:59;;;;;;;45.03;21.52;;;10.20;69.20;;;;;;5049420;28;20028;-84
2022/03/26 01:25:27;;;;;;;42.35;21.35;;;10.10;69.30;;;;;;5049266;28;20400;-84
2022/03/26 01:27:53;;;;;;;50.65;21.42;;;10.20;68.90;;;;;;5031273;28;20029;-83
2022/03/26 01:30:19;;;;;;;41.47;20.67;;;10.10;68.80;;;;;;5031446;28;20400;-83
2022/03/26 01:32:45;;;;;;;39.35;20.02;;;10.10;69.70;;;;;;5032316;28;20033;-84
2022/03/26 01:35:12;;;;;;;44.78;20.48;;;10.10;68.80;;;;;;5032034;28;20075;-84
2022/03/26 01:37:38;;;;;;;39.35;19.42;;;10.20;68.80;;;;;;5031152;28;20036;-89
2022/03/26 01:40:05;;;;;;;42.47;20.08;;;10.20;68.20;;;;;;5049471;28;20029;-91
2022/03/26 01:42:30;;;;;;;37.10;19.42;;;10.20;68.10;;;;;;5048601;28;20057;-90
2022/03/26 01:44:56;;;;;;;39.92;20.73;;;10.20;68.00;;;;;;5049429;28;20021;-89
2022/03/26 01:47:22;;;;;;;36.80;19.95;;;10.20;67.90;;;;;;5049409;28;20554;-84
2022/03/26 01:49:48;;;;;;;35.95;19.13;;;10.20;68.20;;;;;;5031618;28;20431;-89
2022/03/26 01:52:14;;;;;;;39.60;20.13;;;10.30;67.60;;;;;;5031621;28;20029;-84
2022/03/26 01:54:40;;;;;;;40.08;19.02;;;10.30;67.90;;;;;;5049267;28;20025;-84
2022/03/26 01:57:10;;;;;;;40.45;19.60;;;10.30;67.80;;;;;;5048746;28;20615;-84
2022/03/26 01:59:37;;;;;;;37.50;18.88;;;10.20;68.20;;;;;;5049060;28;20260;-85
2022/03/26 02:02:03;;;;;;;36.17;19.65;;;10.10;68.10;;;;;;5048935;28;20025;-84
2022/03/26 02:04:29;;;;;;;37.95;19.30;;;10.10;68.90;;;;;;5048852;28;20057;-89
2022/03/26 02:06:54;;;;;;;40.63;20.10;;;10.00;69.60;;;;;;5048214;28;20114;-89
2022/03/26 02:09:20;;;;;;;36.25;18.10;;;10.10;68.90;;;;;;5048949;28;20392;-84
2022/03/26 02:11:47;;;;;;;34.88;18.98;;;10.00;69.40;;;;;;5031709;28;20028;-87
2022/03/26 02:14:14;;;;;;;42.80;17.80;;;10.00;69.30;;;;;;5049796;28;20025;-87
2022/03/26 02:16:41;;;;;;;35.65;17.98;;;10.00;69.40;;;;;;5031003;28;20374;-85
2022/03/26 02:19:08;;;;;;;34.35;17.60;;;9.90;69.60;;;;;;5030205;28;20037;-83
2022/03/26 02:21:35;;;;;;;41.25;18.75;;;9.90;68.80;;;;;;5048398;28;20447;-83
2022/03/26 02:24:03;;;;;;;32.75;17.83;;;10.00;69.50;;;;;;5031061;28;20024;-83
2022/03/26 02:26:30;;;;;;;33.42;17.45;;;9.80;70.00;;;;;;5048137;28;20029;-85
2022/03/26 02:29:03;;;;;;;35.60;18.27;;;9.90;69.60;;;;;;5048453;28;20051;-87
2022/03/26 02:31:29;;;;;;;32.22;17.38;;;9.80;69.90;;;;;;5048718;28;20036;-87
2022/03/26 02:33:54;;;;;;;38.17;17.75;;;9.80;70.80;;;;;;5048229;28;20025;-87
2022/03/26 02:36:20;;;;;;;45.55;18.05;;;9.90;70.30;;;;;;5030626;28;20033;-87
2022/03/26 02:38:46;;;;;;;36.15;17.70;;;9.80;70.60;;;;;;5049563;28;20024;-86
2022/03/26 02:41:12;;;;;;;39.97;17.67;;;9.90;70.80;;;;;;5048338;28;20512;-85
2022/03/26 02:43:38;;;;;;;33.92;18.17;;;9.80;70.70;;;;;;5048454;28;20167;-84
2022/03/26 02:46:03;;;;;;;39.75;17.08;;;9.70;72.50;;;;;;5029263;28;20036;-83
2022/03/26 02:48:30;;;;;;;37.95;18.23;;;9.70;72.00;;;;;;5049542;28;20025;-87
2022/03/26 02:50:57;;;;;;;37.60;17.33;;;9.60;73.40;;;;;;5054765;28;20485;-83
2022/03/26 02:53:22;;;;;;;35.08;17.90;;;9.60;73.80;;;;;;5031967;28;20038;-83
2022/03/26 02:55:48;;;;;;;38.28;17.95;;;9.70;73.90;;;;;;5031334;28;20017;-87
2022/03/26 02:58:14;;;;;;;37.25;18.08;;;9.60;74.40;;;;;;5036409;28;20408;-83
2022/03/26 03:00:40;;;;;;;31.02;18.98;;;9.60;75.70;;;;;;5049032;28;20505;-83
2022/03/26 03:03:06;;;;;;;33.20;16.80;;;9.50;75.30;;;;;;5030554;28;20445;-89
2022/03/26 03:05:33;;;;;;;37.65;17.50;;;9.40;76.70;;;;;;5033628;28;20045;-88
2022/03/26 03:08:00;;;;;;;41.40;17.42;;;9.50;77.30;;;;;;5032794;28;20473;-84
2022/03/26 03:10:27;;;;;;;34.33;18.38;;;9.50;77.70;;;;;;5045610;28;20025;-83
2022/03/26 03:12:53;;;;;;;34.17;17.38;;;9.50;77.30;;;;;;5051566;28;20028;-84
2022/03/26 03:15:20;;;;;;;33.50;17.67;;;9.50;77.30;;;;;;5055774;28;20059;-89
2022/03/26 03:17:48;;;;;;;39.13;18.35;;;9.40;78.00;;;;;;5026781;28;20453;-83
2022/03/26 03:20:15;;;;;;;35.85;19.15;;;9.40;78.40;;;;;;5060531;28;20115;-83
2022/03/26 03:22:42;;;;;;;34.08;17.95;;;9.40;78.00;;;;;;5046769;28;20090;-89
2022/03/26 03:25:09;;;;;;;40.17;17.95;;;9.40;78.80;;;;;;5051546;28;20049;-89
2022/03/26 03:27:36;;;;;;;39.83;18.77;;;9.30;79.10;;;;;;5033362;28;20507;-84
2022/03/26 03:30:05;;;;;;;41.40;20.02;;;9.30;79.40;;;;;;5051286;28;20036;-83
2022/03/26 03:32:31;;;;;;;39.30;17.85;;;9.30;79.40;;;;;;5042458;28;20037;-83
2022/03/26 03:34:56;;;;;;;34.08;17.85;;;9.30;79.80;;;;;;5031329;28;20028;-86
2022/03/26 03:37:23;;;;;;;35.38;17.88;;;9.20;80.70;;;;;;5046604;28;20037;-83
2022/03/26 03:39:49;;;;;;;36.38;19.00;;;9.20;80.00;;;;;;5032314;28;20021;-87
2022/03/26 03:42:15;;;;;;;42.22;18.92;;;9.10;79.40;;;;;;5031069;28;20083;-91
2022/03/26 03:44:41;;;;;;;37.55;19.02;;;9.20;79.40;;;;;;5031310;28;20101;-90
2022/03/26 03:47:06;;;;;;;40.88;18.55;;;9.10;79.70;;;;;;5031467;28;20033;-84
2022/03/26 03:49:32;;;;;;;34.90;18.45;;;9.20;80.40;;;;;;5030248;28;20038;-87
2022/03/26 03:51:59;;;;;;;37.60;18.55;;;9.20;79.60;;;;;;5031107;28;20032;-83
2022/03/26 03:54:25;;;;;;;37.22;17.95;;;9.10;80.30;;;;;;5031145;28;20496;-85
2022/03/26 03:56:51;;;;;;;37.05;18.60;;;9.00;80.40;;;;;;5033229;28;20021;-83
2022/03/26 03:59:17;;;;;;;40.17;18.52;;;9.00;79.60;;;;;;5054520;28;20098;-84
2022/03/26 04:01:43;;;;;;;36.63;19.17;;;9.00;79.90;;;;;;5038293;28;20044;-83
2022/03/26 04:04:09;;;;;;;40.63;18.83;;;9.10;79.30;;;;;;5070556;28;20099;-83
2022/03/26 04:06:35;;;;;;;35.35;19.30;;;9.00;79.60;;;;;;5070560;28;20122;-85
2022/03/26 04:09:01;;;;;;;35.25;18.50;;;8.90;80.70;;;;;;5070746;28;20021;-86
2022/03/26 04:11:26;;;;;;;37.85;19.45;;;9.00;79.50;;;;;;5052618;28;20030;-84
2022/03/26 04:13:53;;;;;;;37.60;19.88;;;8.90;80.50;;;;;;5063774;28;20518;-83
2022/03/26 04:16:20;;;;;;;38.70;20.30;;;8.90;80.10;;;;;;5030157;28;20469;-83
2022/03/26 04:18:45;;;;;;;38.70;19.27;;;8.90;80.80;;;;;;5030618;28;20024;-83
2022/03/26 04:21:11;;;;;;;36.17;18.80;;;8.80;81.10;;;;;;5029555;28;20041;-91
2022/03/26 04:23:37;;;;;;;39.25;19.63;;;8.80;80.60;;;;;;5030595;28;20021;-87
2022/03/26 04:26:03;;;;;;;41.10;20.42;;;;;;;;;;5030629;28;20053;-84
2022/03/26 04:28:29;;;;;;;33.33;19.02;;;8.80;79.80;;;;;;5029289;28;20026;-88
2022/03/26 04:30:55;;;;;;;37.80;19.38;;;8.80;80.30;;;;;;5030636;28;20060;-83
2022/03/26 04:33:21;;;;;;;40.85;20.40;;;8.80;79.80;;;;;;5031299;28;20041;-90
2022/03/26 04:35:47;;;;;;;36.72;18.83;;;8.80;79.90;;;;;;5030278;28;20068;-84
2022/03/26 04:38:12;;;;;;;45.38;21.27;;;8.90;78.80;;;;;;5030500;28;20026;-89
2022/03/26 04:40:38;;;;;;;36.00;18.92;;;8.90;79.50;;;;;;5030366;28;20087;-87
2022/03/26 04:43:04;;;;;;;38.25;19.50;;;8.80;78.70;;;;;;5030493;28;20013;-85
2022/03/26 04:45:32;;;;;;;33.10;18.45;;;8.90;78.50;;;;;;5030362;28;20025;-87
2022/03/26 04:47:58;;;;;;;37.42;19.35;;;8.90;78.60;;;;;;5029242;28;20510;-90
2022/03/26 04:50:23;;;;;;;36.15;19.23;;;8.90;78.60;;;;;;5036800;28;20021;-85
2022/03/26 04:52:49;;;;;;;39.05;18.90;;;8.90;79.10;;;;;;5051901;28;20511;-89
2022/03/26 04:55:16;;;;;;;41.50;19.15;;;8.70;79.20;;;;;;5070368;28;20674;-84
2022/03/26 04:57:43;;;;;;;38.90;18.83;;;8.80;79.70;;;;;;5052005;28;20024;-84
2022/03/26 05:00:11;;;;;;;35.55;18.77;;;8.60;80.30;;;;;;5024193;28;20029;-85
2022/03/26 05:02:39;;;;;;;39.70;18.55;;;8.70;80.00;;;;;;5012084;28;20034;-85
2022/03/26 05:05:05;;;;;;;38.28;18.88;;;8.60;80.90;;;;;;5030036;28;20481;-88
2022/03/26 05:07:46;;;;;;;35.65;19.00;;;8.50;81.90;;;;;;5029628;28;20033;-87
2022/03/26 05:10:13;;;;;;;37.75;19.08;;;8.50;82.20;;;;;;5012078;28;20113;-86
2022/03/26 05:12:38;;;;;;;37.40;18.58;;;8.60;81.20;;;;;;5029910;28;20025;-84
2022/03/26 05:15:05;;;;;;;38.38;18.70;;;8.60;81.10;;;;;;5029721;28;20362;-87
2022/03/26 05:17:30;;;;;;;40.10;20.50;;;8.50;81.80;;;;;;5028346;28;20052;-83
2022/03/26 05:19:56;;;;;;;39.15;20.52;;;8.60;81.30;;;;;;5030043;28;20484;-90
2022/03/26 05:22:22;;;;;;;37.30;19.92;;;8.70;81.50;;;;;;5030506;28;20030;-92
2022/03/26 05:24:47;;;;;;;39.13;19.08;;;8.60;80.50;;;;;;5012386;28;20025;-90
2022/03/26 05:27:13;;;;;;;40.75;18.77;;;8.60;80.80;;;;;;5011330;28;20044;-87
2022/03/26 05:29:39;;;;;;;40.35;18.85;;;8.60;81.10;;;;;;5029531;28;20026;-87
2022/03/26 05:32:06;;;;;;;37.53;19.60;;;8.60;80.00;;;;;;5029051;28;20037;-88
2022/03/26 05:34:32;;;;;;;37.40;18.83;;;8.50;80.70;;;;;;5029596;28;20033;-89
2022/03/26 05:36:58;;;;;;;42.42;19.52;;;8.60;80.30;;;;;;5029458;28;20022;-83
2022/03/26 05:39:24;;;;;;;39.22;19.10;;;8.60;80.30;;;;;;5023600;28;20503;-89
2022/03/26 05:41:50;;;;;;;39.80;19.90;;;8.60;80.00;;;;;;5049328;28;20029;-87
2022/03/26 05:44:16;;;;;;;38.53;19.67;;;8.60;79.70;;;;;;5031959;28;20096;-88
2022/03/26 05:46:42;;;;;;;37.83;18.60;;;8.60;80.60;;;;;;5049129;28;20112;-86
2022/03/26 05:49:09;;;;;;;40.88;18.67;;;8.50;80.70;;;;;;5048453;28;20108;-83
2022/03/26 05:51:34;;;;;;;37.70;19.52;;;8.60;80.30;;;;;;5030998;28;20488;-85
2022/03/26 05:54:00;;;;;;;39.15;18.75;;;8.50;80.40;;;;;;5031389;28;20018;-83
2022/03/26 05:56:26;;;;;;;34.20;18.65;;;8.60;80.00;;;;;;5031550;28;20040;-90
2022/03/26 05:58:52;;;;;;;36.80;19.25;;;8.60;80.10;;;;;;5049066;28;20021;-89
2022/03/26 06:01:18;;;;;;;36.33;19.33;;;8.60;79.70;;;;;;5048748;28;20128;-88
2022/03/26 06:03:44;;;;;;;39.45;20.20;;;8.60;79.60;;;;;;5049106;28;20100;-83
2022/03/26 06:06:09;;;;;;;45.25;19.92;;;8.50;80.10;;;;;;5048963;28;20057;-83
2022/03/26 06:08:35;;;;;;;49.10;20.55;;;8.50;80.40;;;;;;5048805;28;20059;-83
2022/03/26 06:11:00;;;;;;;34.90;18.92;;;8.60;80.20;;;;;;5048696;28;20025;-83
2022/03/26 06:13:26;;;;;;;35.92;19.52;;;8.50;80.60;;;;;;5049532;28;20369;-83
2022/03/26 06:15:52;;;;;;;37.50;18.83;;;8.60;79.90;;;;;;5048718;28;20064;-83
2022/03/26 06:18:17;;;;;;;40.95;19.63;;;8.60;79.40;;;;;;5030859;28;20028;-89
2022/03/26 06:20:43;;;;;;;36.67;20.08;;;8.50;79.50;;;;;;5048737;28;20064;-83
2022/03/26 06:23:09;;;;;;;39.03;19.40;;;8.60;79.70;;;;;;5047268;28;20105;-83
2022/03/26 06:25:34;;;;;;;38.35;19.55;;;8.60;79.90;;;;;;5031512;28;20469;-87
2022/03/26 06:28:00;;;;;;;39.20;19.88;;;8.60;78.90;;;;;;5049017;28;20080;-85
2022/03/26 06:30:26;;;;;;;41.50;19.50;;;8.70;79.60;;;;;;5049042;28;20025;-83
2022/03/26 06:32:52;;;;;;;36.00;18.58;;;8.70;78.80;;;;;;5030541;28;20028;-87
2022/03/26 06:35:18;;;;;;;45.60;19.80;;;8.80;78.00;;;;;;5030023;28;20052;-84
2022/03/26 06:37:44;;;;;;;38.10;19.33;;;8.80;78.40;;;;;;5048558;28;20024;-83
2022/03/26 06:40:10;;;;;;;40.33;18.83;;;8.80;78.10;;;;;;5033967;28;20028;-84
2022/03/26 06:42:36;;;;;;;39.60;19.48;;;8.80;78.20;;;;;;5052007;28;20100;-83
2022/03/26 06:45:02;;;;;;;37.60;19.10;;;8.90;77.50;;;;;;5034242;28;20120;-83
2022/03/26 06:47:28;;;;;;;39.58;19.45;;;8.90;77.50;;;;;;5052794;28;20021;-83
2022/03/26 06:49:55;;;;;;;39.95;19.77;;;8.90;78.00;;;;;;5051688;28;20025;-83
2022/03/26 06:52:23;;;;;;;36.65;19.90;;;8.90;78.10;;;;;;5051947;28;20025;-83
2022/03/26 06:54:48;;;;;;;36.10;19.38;;;9.00;76.80;;;;;;5050596;28;20075;-86
2022/03/26 06:57:14;;;;;;;34.42;19.80;;;9.10;76.60;;;;;;5047347;28;20458;-83
2022/03/26 06:59:39;;;;;;;45.53;20.30;;;9.00;77.20;;;;;;5041707;28;20025;-83
2022/03/26 07:02:06;;;;;;;48.45;20.90;;;9.10;76.50;;;;;;5033885;28;20075;-83
2022/03/26 07:04:32;;;;;;;42.17;19.92;;;9.30;74.80;;;;;;5052753;28;20057;-84
2022/03/26 07:06:57;;;;;;;41.38;20.42;;;9.30;75.30;;;;;;5052498;28;20435;-85
2022/03/26 07:09:23;;;;;;;36.88;20.30;;;9.30;74.50;;;;;;5045367;28;20487;-84
2022/03/26 07:11:50;;;;;;;39.60;19.35;;;9.30;75.10;;;;;;5038648;28;20025;-85
2022/03/26 07:14:17;;;;;;;38.53;20.20;;;9.30;75.50;;;;;;5030607;28;20025;-85
2022/03/26 07:16:44;;;;;;;34.42;18.98;;;9.40;75.70;;;;;;5031180;28;20035;-85
2022/03/26 07:19:10;;;;;;;41.63;20.02;;;9.40;75.60;;;;;;5049542;28;20119;-84
2022/03/26 07:21:37;;;;;;;42.28;20.77;;;9.50;75.20;;;;;;5050426;28;20033;-91
2022/03/26 07:24:04;;;;;;;38.40;19.83;;;9.50;75.70;;;;;;5032420;28;20028;-88
2022/03/26 07:26:30;;;;;;;51.20;21.52;;;9.60;75.30;;;;;;5050359;28;20025;-84
2022/03/26 07:28:56;;;;;;;37.35;21.08;;;9.70;74.50;;;;;;5048344;28;20029;-88
2022/03/26 07:31:23;;;;;;;39.25;20.15;;;9.80;74.10;;;;;;5044484;28;20024;-89
2022/03/26 07:33:49;;;;;;;38.08;20.50;;;9.80;74.20;;;;;;5050352;28;20056;-91
2022/03/26 07:36:15;;;;;;;36.45;20.00;;;9.90;74.00;;;;;;5047158;28;20107;-84
2022/03/26 07:38:41;;;;;;;31.85;19.63;;;10.00;74.70;;;;;;5039306;28;20056;-86
2022/03/26 07:41:07;;;;;;;39.05;19.95;;;10.10;73.60;;;;;;5050656;28;20128;-85
2022/03/26 07:43:42;;;;;;;39.22;20.40;;;10.10;74.40;;;;;;5035183;28;20029;-91
2022/03/26 07:46:08;;;;;;;41.45;21.05;;;10.10;73.80;;;;;;5046985;28;20116;-84
2022/03/26 07:48:34;;;;;;;38.92;20.95;;;10.20;71.40;;;;;;5051538;28;20104;-87
2022/03/26 07:51:00;;;;;;;43.38;21.08;;;10.20;71.50;;;;;;5045264;28;20044;-86
2022/03/26 07:53:27;;;;;;;41.33;21.25;;;10.30;70.20;;;;;;5044963;28;20488;-86
2022/03/26 07:55:53;;;;;;;39.55;20.77;;;10.40;70.80;;;;;;5050577;28;20492;-85
2022/03/26 07:58:19;;;;;;;39.13;20.77;;;10.40;69.90;;;;;;5035987;28;20032;-86
2022/03/26 08:00:45;;;;;;;40.03;20.70;;;10.50;71.30;;;;;;5033270;28;20067;-89
2022/03/26 08:03:13;;;;;;;39.28;21.13;;;10.60;69.80;;;;;;5033887;28;20025;-90
2022/03/26 08:05:38;;;;;;;44.65;21.67;;;10.80;67.50;;;;;;5051295;28;20031;-91
2022/03/26 08:08:05;;;;;;;38.28;20.85;;;10.90;67.60;;;;;;5049830;28;20475;-90
2022/03/26 08:10:30;;;;;;;37.75;21.05;;;10.90;68.50;;;;;;5035232;28;20023;-90
2022/03/26 08:13:00;;;;;;;37.25;20.58;;;11.00;68.60;;;;;;5034441;28;20025;-89
2022/03/26 08:19:40;;;;;;;;;;;;;;;;;;;;;
2022/03/26 08:22:47;;;;;;;42.70;21.77;;;11.30;69.00;;;;;;4929848;29;20039;-90
2022/03/26 08:26:19;;;;;;;36.13;20.33;;;11.40;66.10;;;;;;4933499;28;20048;-89
2022/03/26 08:28:08;;;;;;;43.08;21.83;;;11.50;66.40;;;;;;4932530;29;20028;-86
2022/03/26 08:30:34;;;;;;;40.10;21.58;;;11.60;66.50;;;;;;4975552;28;20041;-86
2022/03/26 08:33:01;;;;;;;37.85;20.88;;;11.70;67.10;;;;;;5013719;28;20396;-85
2022/03/26 08:35:31;;;;;;;39.15;22.25;;;11.80;65.60;;;;;;5046288;28;20020;-85
2022/03/26 08:37:56;;;;;;;41.40;22.02;;;11.90;65.00;;;;;;5045654;28;20749;-84
2022/03/26 08:40:22;;;;;;;46.40;22.08;;;12.10;65.40;;;;;;5047359;28;20060;-85
2022/03/26 08:42:48;;;;;;;46.65;22.63;;;12.20;62.30;;;;;;5050271;28;20044;-86
2022/03/26 08:45:13;;;;;;;38.97;22.35;;;12.50;64.50;;;;;;5051835;28;20387;-87
2022/03/26 08:47:39;;;;;;;38.10;21.90;;;12.70;64.50;;;;;;5033375;28;20024;-88
2022/03/26 08:50:06;;;;;;;44.20;23.17;;;12.70;62.50;;;;;;5049587;28;20036;-82
2022/03/26 08:52:34;;;;;;;41.05;22.70;;;12.90;63.20;;;;;;5049713;28;20031;-88
2022/03/26 08:55:00;;;;;;;41.67;23.95;;;13.10;63.20;;;;;;5049862;28;20029;-90
2022/03/26 08:57:26;;;;;;;45.58;24.17;;;13.10;59.80;;;;;;5050376;28;20052;-90
2022/03/26 08:59:52;;;;;;;44.67;23.35;;;13.20;63.50;;;;;;5049711;28;20381;-88
2022/03/26 09:02:18;;;;;;;41.35;23.30;;;13.40;59.50;;;;;;5049337;28;20126;-88
2022/03/26 09:04:44;;;;;;;45.42;23.23;;;13.50;62.20;;;;;;5049739;28;20021;-86
2022/03/26 09:07:09;;;;;;;38.53;22.67;;;13.60;62.60;;;;;;5032446;28;20159;-87
2022/03/26 09:09:35;;;;;;;47.45;24.40;;;13.80;61.30;;;;;;5050864;28;20045;-89
2022/03/26 09:12:01;;;;;;;41.75;24.48;;;13.60;59.70;;;;;;5046512;28;20412;-88
2022/03/26 09:14:26;;;;;;;40.70;23.77;;;13.90;61.00;;;;;;5050065;28;20465;-89
2022/03/26 09:16:52;;;;;;;42.13;24.30;;;13.90;61.30;;;;;;5033437;28;20536;-89
2022/03/26 09:19:18;;;;;;;45.25;25.08;;;14.10;59.40;;;;;;5032599;28;20027;-89
2022/03/26 09:21:46;;;;;;;43.65;24.75;;;14.20;59.70;;;;;;5032447;28;20043;-90
2022/03/26 09:24:13;;;;;;;44.33;25.33;;;14.20;57.00;;;;;;5032667;28;20021;-90
2022/03/26 09:26:39;;;;;;;45.63;25.90;;;14.30;60.70;;;;;;5050699;28;20021;-88
2022/03/26 09:29:05;;;;;;;47.03;25.50;;;14.30;56.50;;;;;;5033265;28;20025;-87
2022/03/26 09:31:31;;;;;;;49.92;26.23;;;14.30;56.50;;;;;;5050321;28;20100;-89
2022/03/26 09:33:57;;;;;;;41.10;25.45;;;14.50;56.40;;;;;;5032644;28;20028;-89
2022/03/26 09:36:23;;;;;;;48.30;26.02;;;14.50;55.50;;;;;;5032494;28;20215;-89
2022/03/26 09:38:48;;;;;;;44.33;25.83;;;14.80;57.10;;;;;;5032552;28;20021;-91
2022/03/26 09:41:16;;;;;;;43.30;25.20;;;14.80;53.60;;;;;;5048684;28;20083;-90
2022/03/26 09:43:42;;;;;;;46.87;27.00;;;15.10;57.50;;;;;;5032508;28;20031;-87
2022/03/26 09:46:08;;;;;;;43.60;26.33;;;14.90;51.90;;;;;;5050600;28;20078;-87
2022/03/26 09:48:34;;;;;;;43.00;26.40;;;15.00;52.80;;;;;;5032510;28;20025;-88
2022/03/26 09:51:02;;;;;;;45.00;26.55;;;15.00;51.60;;;;;;5050111;28;20456;-88
2022/03/26 09:53:28;;;;;;;48.90;27.13;;;15.00;51.70;;;;;;5048837;28;20071;-90
2022/03/26 09:55:55;;;;;;;44.15;26.55;;;15.00;51.10;;;;;;5032482;28;20044;-89
2022/03/26 09:58:20;;;;;;;48.95;25.83;;;15.10;50.20;;;;;;5048932;28;20028;-89
2022/03/26 10:00:47;;;;;;;47.05;26.50;;;15.20;50.90;;;;;;5032379;28;20422;-90
2022/03/26 10:03:13;;;;;;;48.03;26.25;;;15.20;50.60;;;;;;5032147;28;20040;-88
2022/03/26 10:05:39;;;;;;;43.95;26.33;;;15.40;54.20;;;;;;5033164;28;20021;-88
2022/03/26 10:08:15;;;;;;;44.10;27.00;;;15.60;53.50;;;;;;5032200;28;20029;-89
2022/03/26 10:10:45;;;;;;;46.72;26.60;;;15.80;50.90;;;;;;5051699;28;20082;-86
2022/03/26 10:13:42;;;;;;;47.78;27.70;;;15.80;51.30;;;;;;5034621;28;20052;-87
2022/03/26 10:16:13;;;;;;;46.75;27.40;;;15.80;51.00;;;;;;5033188;28;20026;-87
2022/03/26 10:19:03;;;;;;;44.30;27.13;;;16.00;49.90;;;;;;5030576;28;20036;-88
2022/03/26 10:21:29;;;;;;;50.92;29.00;;;16.10;50.50;;;;;;5052937;28;20056;-87
2022/03/26 10:23:55;;;;;;;51.33;28.92;;;16.00;47.70;;;;;;5036066;28;20025;-88
2022/03/26 10:26:26;;;;;;;49.78;28.17;;;16.10;51.20;;;;;;5040017;28;20028;-89
2022/03/26 10:28:57;;;;;;;48.10;29.00;;;16.30;50.80;;;;;;5035231;28;20033;-88
2022/03/26 10:34:16;;;;;;;53.35;29.50;;;16.30;46.80;;;;;;5054113;28;20082;-90
2022/03/26 10:36:54;;;;;;;54.05;29.63;;;16.30;46.90;;;;;;5036318;28;20025;-89
2022/03/26 10:39:21;;;;;;;;;;;16.40;49.40;;;;;;5035891;28;20063;-87
2022/03/26 10:41:48;;;;;;;58.97;28.90;;;16.50;49.00;;;;;;5052934;28;19913;-89
2022/03/26 10:44:16;;;;;;;47.65;28.38;;;16.50;47.40;;;;;;5052861;28;20037;-88
2022/03/26 10:46:53;;;;;;;52.38;29.95;;;16.60;49.20;;;;;;5035048;28;20032;-88
2022/03/26 10:49:40;;;;;;;55.67;29.52;;;16.50;47.40;;;;;;5052525;28;20029;-89
2022/03/26 10:52:15;;;;;;;46.20;28.60;;;16.60;48.40;;;;;;5052903;28;20021;-90
2022/03/26 10:54:41;;;;;;;48.78;29.95;;;16.80;49.70;;;;;;5035991;28;20036;-90
2022/03/26 10:57:08;;;;;;;52.55;30.50;;;16.70;48.00;;;;;;5035651;28;20021;-90
2022/03/26 10:59:33;;;;;;;54.25;30.50;;;16.80;48.00;;;;;;5035041;28;20455;-89
2022/03/26 11:02:00;;;;;;;55.30;30.67;;;16.80;46.80;;;;;;5034631;28;20120;-90
2022/03/26 11:04:27;;;;;;;57.58;30.38;;;16.70;48.10;;;;;;5035035;28;20108;-93
2022/03/26 11:06:53;;;;;;;55.55;31.92;;;16.80;48.50;;;;;;5035131;28;20396;-92
2022/03/26 11:09:20;;;;;;;53.20;30.23;;;16.80;49.10;;;;;;5051765;28;20028;-88
2022/03/26 11:11:48;;;;;;;52.40;31.35;;;17.10;48.20;;;;;;5034979;28;20465;-89
2022/03/26 11:14:16;;;;;;;;;;;17.30;48.50;;;;;;5035647;28;20064;-91
2022/03/26 11:17:16;;;;;;;58.38;30.83;;;17.50;48.80;;;;;;5067681;28;19909;-91
2022/03/26 11:20:00;;;;;;;49.65;30.27;;;17.20;46.20;;;;;;5010372;28;20044;-90
2022/03/26 11:22:53;;;;;;;51.13;30.77;;;17.30;46.80;;;;;;5033834;28;20032;-90
2022/03/26 11:26:08;;;;;;;51.05;30.15;;;17.40;47.80;;;;;;5051009;28;20033;-88
2022/03/26 11:28:41;;;;;;;55.67;31.15;;;17.50;48.40;;;;;;5032831;28;20500;-89
2022/03/26 11:31:09;;;;;;;54.40;30.60;;;17.80;45.80;;;;;;5035596;28;20396;-89
2022/03/26 11:33:37;;;;;;;52.53;30.02;;;17.40;43.40;;;;;;5034105;28;20252;-88
2022/03/26 11:36:05;;;;;;;53.13;30.58;;;17.40;42.30;;;;;;5052278;28;20095;-91
2022/03/26 11:38:31;;;;;;;;;;;17.70;45.70;;;;;;5051647;28;20067;-88
2022/03/26 11:41:00;;;;;;;47.72;29.05;;;17.70;41.50;;;;;;5034472;28;20281;-90
2022/03/26 11:43:44;;;;;;;52.38;29.85;;;17.70;43.80;;;;;;5034600;28;20388;-93
2022/03/26 11:52:22;;;;;;;49.33;29.77;;;17.50;40.80;;;;;;5052111;28;20040;-87
2022/03/26 11:54:53;;;;;;;46.75;28.55;;;17.60;40.20;;;;;;5052252;28;20029;-88
2022/03/26 11:57:28;;;;;;;50.72;29.95;;;17.70;41.80;;;;;;5032974;28;20040;-89
2022/03/26 12:00:00;;;;;;;51.67;29.35;;;17.70;42.60;;;;;;5025495;28;20025;-89
2022/03/26 12:02:36;;;;;;;49.15;29.88;;;17.80;43.30;;;;;;5040650;28;20028;-88
2022/03/26 12:08:15;;;;;;;51.90;30.92;;;17.90;43.50;;;;;;5050239;28;20078;-91
2022/03/26 12:10:43;;;;;;;51.35;29.33;;;17.90;42.00;;;;;;5064398;28;20408;-89
2022/03/26 12:13:10;;;;;;;50.17;29.92;;;18.00;42.20;;;;;;5048332;28;20025;-87
2022/03/26 12:15:36;;;;;;;55.90;31.05;;;18.00;40.00;;;;;;5041781;28;20025;-89
2022/03/26 12:18:10;;;;;;;52.20;31.08;;;17.70;39.30;;;;;;5032894;28;20100;-90
2022/03/26 12:20:46;;;;;;;53.40;31.02;;;17.80;41.40;;;;;;5050625;28;20029;-89
2022/03/26 12:23:26;;;;;;;56.13;31.17;;;17.70;40.50;;;;;;5032770;28;20021;-87
2022/03/26 12:26:14;;;;;;;51.88;30.15;;;17.80;42.50;;;;;;5026568;28;20369;-89
2022/03/26 12:28:43;;;;;;;;;;;17.90;43.30;;;;;;5042789;28;20072;-87
2022/03/26 12:31:14;;;;;;;56.22;30.30;;;18.00;41.10;;;;;;5046145;28;19919;-88
2022/03/26 12:33:48;;;;;;;54.45;30.60;;;17.90;41.90;;;;;;5047555;28;20427;-87
2022/03/26 12:36:17;;;;;;;58.03;31.17;;;18.00;41.40;;;;;;5044551;28;20055;-91
2022/03/26 12:38:51;;;;;;;55.95;30.52;;;17.90;41.20;;;;;;5049351;28;20078;-90
2022/03/26 12:41:17;;;;;;;49.15;30.85;;;18.10;43.50;;;;;;5038622;28;20424;-93
2022/03/26 12:44:02;;;;;;;51.65;30.15;;;18.10;43.70;;;;;;5027592;28;20096;-90
2022/03/26 12:46:36;;;;;;;56.95;31.25;;;18.30;42.60;;;;;;5012704;28;20025;-90
2022/03/26 12:49:19;;;;;;;52.13;31.58;;;18.10;40.90;;;;;;5030276;28;20028;-84
2022/03/26 12:51:49;;;;;;;52.47;30.40;;;18.20;41.20;;;;;;5031083;28;20033;-89